Time;durP1;ratioP1;P1;durP2;ratioP2;P2;SDS_P1;SDS_P2;PMS_P1;PMS_P2;Temp;Humidity;BMP_temperature;BMP_pressure;BME280_temperature;BME280_humidity;BME280_pressure;Samples;Min_cycle;Max_cycle;Signal;HPM_P1;HPM_P2
2021/12/11 00:00:18;;;;;;;;;3.25;1.00;;;;;6.85;82.32;100372.47;5083554;28;45604;-80
2021/12/11 00:02:45;;;;;;;;;1.00;1.00;;;;;6.69;82.43;100349.09;5085282;28;45568;-79
2021/12/11 00:05:16;;;;;;;;;2.00;2.00;;;;;6.84;82.27;100364.75;5089800;28;45520;-79
2021/12/11 00:07:42;;;;;;;;;1.00;1.00;;;;;6.84;82.00;100376.00;5085181;28;45312;-79
2021/12/11 00:10:08;;;;;;;;;2.00;2.00;;;;;6.85;81.96;100369.03;5078538;28;45650;-79
2021/12/11 00:15:57;;;;;;;;;1.00;1.00;;;;;6.80;81.97;100387.53;5087111;28;45916;-78
2021/12/11 00:18:26;;;;;;;;;4.00;2.00;;;;;6.84;82.28;100385.56;5077898;28;45801;-79
2021/12/11 00:21:07;;;;;;;;;1.25;1.25;;;;;6.80;82.09;100391.91;5077045;28;46511;-80
2021/12/11 00:23:38;;;;;;;;;2.25;1.00;;;;;6.60;81.12;100370.47;5078622;28;46249;-79
2021/12/11 00:26:07;;;;;;;;;3.50;2.00;;;;;6.82;81.92;100405.66;5081545;28;45592;-80
2021/12/11 00:28:32;;;;;;;;;2.00;1.75;;;;;6.81;82.22;100414.38;5078586;28;45539;-79
2021/12/11 00:30:59;;;;;;;;;0.00;0.00;;;;;6.66;81.87;100392.69;5077306;28;45618;-80
2021/12/11 00:33:31;;;;;;;;;1.50;1.00;;;;;6.64;81.77;100395.38;5077457;28;45691;-80
2021/12/11 00:35:57;;;;;;;;;4.00;1.00;;;;;6.69;81.97;100401.16;5077007;28;45797;-79
2021/12/11 00:38:26;;;;;;;;;1.00;1.00;;;;;6.80;81.75;100423.97;5076806;28;45647;-79
2021/12/11 00:40:54;;;;;;;;;3.00;1.00;;;;;6.79;81.35;100427.50;5076757;28;45659;-79
2021/12/11 00:43:28;;;;;;;;;6.50;2.00;;;;;6.69;81.45;100421.97;5076730;28;46286;-79
2021/12/11 00:45:54;;;;;;;;;1.75;1.25;;;;;6.69;81.23;100424.56;5076571;28;45596;-79
2021/12/11 00:48:22;;;;;;;;;3.75;1.00;;;;;6.76;81.25;100445.88;5076929;28;45566;-79
2021/12/11 00:51:03;;;;;;;;;2.50;2.00;;;;;6.74;81.70;100463.38;5076756;28;45778;-79
2021/12/11 00:53:30;;;;;;;;;1.25;1.00;;;;;6.71;81.73;100458.34;5076560;28;46352;-79
2021/12/11 00:56:00;;;;;;;;;2.00;1.00;;;;;6.67;82.01;100464.66;5078665;28;45698;-80
2021/12/11 00:58:29;;;;;;;;;1.50;1.50;;;;;6.54;81.31;100448.88;5080503;28;45889;-80
2021/12/11 01:01:00;;;;;;;;;2.00;2.00;;;;;6.58;81.97;100470.41;5080465;28;46384;-79
2021/12/11 01:03:37;;;;;;;;;2.50;1.75;;;;;6.54;81.33;100474.91;5080056;28;46007;-79
2021/12/11 01:06:19;;;;;;;;;2.00;1.25;;;;;6.43;81.86;100463.44;5076596;28;45733;-81
2021/12/11 01:08:56;;;;;;;;;2.50;1.00;;;;;6.45;81.63;100472.00;5106268;27;45699;-80
2021/12/11 01:11:28;;;;;;;;;4.00;2.00;;;;;6.46;81.34;100491.91;5075871;28;46432;-80
2021/12/11 01:14:12;;;;;;;;;5.25;2.50;;;;;6.38;81.73;100483.66;5076570;28;46290;-78
2021/12/11 01:16:41;;;;;;;;;1.00;0.00;;;;;6.38;81.75;100486.25;5076585;28;45840;-80
2021/12/11 01:19:08;;;;;;;;;1.75;1.75;;;;;6.38;81.80;100494.91;5076307;28;45705;-79
2021/12/11 01:24:13;;;;;;;;;1.75;1.00;;;;;6.12;81.58;100467.75;5075699;28;45829;-80
2021/12/11 01:26:47;;;;;;;;;4.00;2.00;;;;;6.32;81.52;100514.31;5074458;28;45907;-79
2021/12/11 01:29:15;;;;;;;;;3.00;1.50;;;;;6.03;81.56;100475.22;5075641;28;45588;-79
2021/12/11 01:31:41;;;;;;;;;2.00;1.25;;;;;6.28;81.67;100524.97;5075990;28;46392;-79
2021/12/11 01:34:07;;;;;;;;;2.00;2.00;;;;;6.27;81.64;100518.06;5075383;28;46104;-77
2021/12/11 01:36:34;;;;;;;;;3.00;2.00;;;;;6.19;81.37;100515.06;5076035;28;45576;-79
2021/12/11 01:39:05;;;;;;;;;3.75;2.00;;;;;6.23;81.50;100543.44;5076045;28;45522;-81
2021/12/11 01:41:32;;;;;;;;;2.50;1.50;;;;;6.12;81.45;100516.31;5074408;28;48768;-80
2021/12/11 01:44:02;;;;;;;;;1.25;1.00;;;;;6.24;81.37;100531.25;5075887;28;46400;-79
2021/12/11 01:46:28;;;;;;;;;3.00;1.00;;;;;6.20;81.40;100542.75;5075699;28;45875;-80
2021/12/11 01:49:00;;;;;;;;;2.00;1.00;;;;;6.22;82.13;100553.91;5108248;27;45598;-78
2021/12/11 01:51:32;;;;;;;;;1.25;1.00;;;;;6.16;82.31;100538.63;5075281;28;46294;-80
2021/12/11 01:54:11;;;;;;;;;2.00;1.00;;;;;6.09;82.04;100535.53;5075124;28;46911;-79
2021/12/11 01:56:37;;;;;;;;;2.00;1.25;;;;;6.19;81.77;100557.53;5074933;28;45495;-78
2021/12/11 01:59:10;;;;;;;;;1.25;1.00;;;;;6.18;81.74;100548.03;5075294;28;45504;-79
2021/12/11 02:02:18;;;;;;;;;1.25;1.00;;;;;6.19;81.90;100556.69;5073591;28;46314;-79
2021/12/11 02:04:46;;;;;;;;;2.50;2.00;;;;;6.08;81.53;100530.41;5073021;28;47382;-79
2021/12/11 02:07:18;;;;;;;;;1.00;1.00;;;;;6.19;81.31;100565.34;5073116;28;45758;-80
2021/12/11 02:09:51;;;;;;;;;1.00;1.00;;;;;6.19;81.90;100570.53;5073709;28;45846;-79
2021/12/11 02:12:26;;;;;;;;;1.75;1.00;;;;;6.20;81.80;100574.81;5073475;28;45583;-79
2021/12/11 02:14:55;;;;;;;;;2.50;1.25;;;;;6.15;81.53;100565.59;5073339;28;46083;-77
2021/12/11 02:17:28;;;;;;;;;1.75;1.00;;;;;6.15;81.33;100578.59;5073345;28;45940;-79
2021/12/11 02:19:56;;;;;;;;;2.00;1.50;;;;;5.99;81.56;100555.16;5073011;28;45804;-78
2021/12/11 02:22:28;;;;;;;;;2.00;1.00;;;;;6.14;81.61;100588.16;5073224;28;46681;-79
2021/12/11 02:25:00;;;;;;;;;1.00;1.00;;;;;6.17;81.48;100589.72;5074155;28;46272;-79
2021/12/11 02:27:41;;;;;;;;;4.00;2.00;;;;;6.15;81.32;100597.63;5075721;28;45909;-79
2021/12/11 02:30:48;;;;;;;;;2.00;1.75;;;;;6.17;81.45;100600.13;5075931;28;45763;-79
2021/12/11 02:33:25;;;;;;;;;2.00;1.25;;;;;6.17;81.58;100611.38;5035573;28;45741;-78
2021/12/11 02:36:11;;;;;;;;;4.00;1.00;;;;;6.17;80.92;100613.97;5033535;28;46221;-79
2021/12/11 02:38:43;;;;;;;;;4.75;2.00;;;;;6.17;81.60;100605.34;5032769;28;45519;-80
2021/12/11 02:44:41;;;;;;;;;1.50;1.50;;;;;6.11;81.22;100605.66;5032449;28;46060;-80
2021/12/11 02:47:26;;;;;;;;;4.00;1.75;;;;;6.09;81.63;100608.34;5033157;28;46458;-78
2021/12/11 02:49:54;;;;;;;;;1.00;1.00;;;;;6.06;81.44;100605.91;5033018;28;45637;-79
2021/12/11 02:52:48;;;;;;;;;2.75;1.00;;;;;6.01;81.34;100607.06;5033104;28;45949;-80
2021/12/11 02:55:19;;;;;;;;;1.25;1.25;;;;;5.71;81.08;100573.09;5033479;28;45748;-79
2021/12/11 03:01:24;;;;;;;;;1.25;1.00;;;;;6.02;81.56;100626.94;5032765;28;45734;-78
2021/12/11 03:03:59;;;;;;;;;2.00;1.00;;;;;6.02;81.77;100626.94;5032486;28;45783;-80
2021/12/11 03:06:28;;;;;;;;;2.00;1.50;;;;;6.01;81.95;100640.88;5040531;28;45806;-80
2021/12/11 03:08:58;;;;;;;;;1.00;1.00;;;;;6.00;81.57;100636.59;5074552;28;46091;-80
2021/12/11 03:11:28;;;;;;;;;2.00;1.00;;;;;6.03;81.54;100639.88;5074741;28;46343;-79
2021/12/11 03:13:55;;;;;;;;;2.00;1.00;;;;;5.98;81.71;100635.84;5074484;27;45619;-79
2021/12/11 03:16:27;;;;;;;;;1.00;1.00;;;;;6.03;82.09;100657.25;5074514;27;46452;-81
2021/12/11 03:18:54;;;;;;;;;1.75;1.00;;;;;5.99;82.08;100640.97;5074533;28;46370;-80
2021/12/11 03:21:20;;;;;;;;;0.25;0.25;;;;;6.08;82.05;100669.09;5074014;28;45586;-80
2021/12/11 03:23:46;;;;;;;;;1.00;0.75;;;;;6.09;82.13;100668.19;5107583;27;45641;-80
2021/12/11 03:26:12;;;;;;;;;1.75;0.75;;;;;6.10;81.77;100679.41;5074082;28;46608;-79
2021/12/11 03:32:39;;;;;;;;;1.50;0.75;;;;;6.11;81.78;100678.47;5069640;28;45829;-79
2021/12/11 03:35:07;;;;;;;;;2.00;1.00;;;;;6.09;81.83;100682.94;5073059;28;45598;-80
2021/12/11 03:37:33;;;;;;;;;2.00;0.00;;;;;6.08;81.80;100673.44;5073799;28;46492;-80
2021/12/11 03:39:58;;;;;;;;;1.50;1.00;;;;;6.13;81.49;100705.25;5074302;28;45568;-79
2021/12/11 03:42:29;;;;;;;;;1.50;0.50;;;;;6.15;82.06;100709.47;5074536;27;45754;-80
2021/12/11 03:44:56;;;;;;;;;0.00;0.00;;;;;6.13;82.10;100705.25;5074572;28;45645;-79
2021/12/11 03:47:32;;;;;;;;;0.50;0.00;;;;;6.09;82.10;100698.53;5074202;27;46595;-79
2021/12/11 03:49:58;;;;;;;;;0.00;0.00;;;;;6.05;82.35;100697.00;5077590;28;46304;-80
2021/12/11 03:52:24;;;;;;;;;0.25;0.00;;;;;6.09;82.07;100716.75;5077594;28;45580;-79
2021/12/11 03:54:53;;;;;;;;;3.00;1.00;;;;;6.16;82.22;100731.09;5079790;28;45843;-79
2021/12/11 03:57:23;;;;;;;;;0.00;0.00;;;;;6.16;81.99;100718.94;5095713;27;47747;-78
2021/12/11 03:59:51;;;;;;;;;0.00;0.00;;;;;6.16;81.62;100724.13;5114090;27;46263;-79
2021/12/11 04:02:21;;;;;;;;;1.75;1.00;;;;;6.17;81.67;100730.19;5080803;28;45489;-78
2021/12/11 04:04:54;;;;;;;;;1.25;1.00;;;;;6.17;81.98;100732.78;5081048;28;45722;-77
2021/12/11 04:07:23;;;;;;;;;1.00;0.00;;;;;6.17;81.58;100724.97;5080344;28;47598;-78
2021/12/11 04:09:49;;;;;;;;;1.25;1.00;;;;;6.17;81.78;100719.78;5078016;28;46001;-78
2021/12/11 04:12:17;;;;;;;;;0.00;0.00;;;;;6.15;81.65;100727.69;5075498;28;45624;-80
2021/12/11 04:14:45;;;;;;;;;0.50;0.25;;;;;6.12;81.47;100720.03;5077177;28;45759;-78
2021/12/11 04:17:13;;;;;;;;;1.50;0.00;;;;;6.14;82.06;100726.00;5077341;28;46219;-78
2021/12/11 04:19:40;;;;;;;;;2.00;0.75;;;;;6.18;81.67;100737.91;5076789;28;46186;-78
2021/12/11 04:22:07;;;;;;;;;2.00;1.00;;;;;6.17;81.70;100736.22;5110102;27;46055;-79
2021/12/11 04:24:35;;;;;;;;;2.00;1.00;;;;;6.15;81.61;100742.44;5077064;28;45537;-79
2021/12/11 04:27:06;;;;;;;;;1.00;1.00;;;;;6.16;81.63;100757.94;5076779;28;45596;-80
2021/12/11 04:29:31;;;;;;;;;0.00;0.00;;;;;6.05;81.79;100728.19;5076792;28;45892;-80
2021/12/11 04:32:00;;;;;;;;;2.50;1.00;;;;;6.13;81.67;100746.88;5076663;28;45946;-77
2021/12/11 04:34:26;;;;;;;;;1.00;0.00;;;;;6.10;81.67;100736.63;5077127;28;45592;-80
2021/12/11 04:36:58;;;;;;;;;2.50;1.00;;;;;6.12;81.49;100755.59;5076870;28;45973;-79
2021/12/11 04:39:26;;;;;;;;;1.00;1.00;;;;;5.95;81.79;100719.19;5076656;28;46605;-79
2021/12/11 04:42:02;;;;;;;;;2.00;0.25;;;;;6.12;81.51;100758.19;5076944;28;45756;-79
2021/12/11 04:47:56;;;;;;;;;2.00;1.00;;;;;5.92;81.65;100735.78;5076093;28;45963;-78
2021/12/11 04:50:33;;;;;;;;;1.50;1.00;;;;;6.03;82.11;100775.09;5076127;27;46109;-78
2021/12/11 04:53:01;;;;;;;;;0.00;0.00;;;;;6.00;81.78;100774.41;5076561;28;45823;-79
2021/12/11 04:58:53;;;;;;;;;1.50;1.00;;;;;6.02;81.53;100768.22;5075523;28;45647;-77
2021/12/11 05:07:00;;;;;;;;;0.75;0.00;;;;;5.90;81.19;100745.41;5076007;28;45551;-79
2021/12/11 05:15:22;;;;;;;;;0.25;0.00;;;;;6.09;81.74;100784.38;5073866;28;46034;-79
2021/12/11 05:17:48;;;;;;;;;2.00;1.00;;;;;6.05;81.95;100788.84;5073967;28;45714;-79
2021/12/11 05:20:17;;;;;;;;;2.00;1.00;;;;;6.04;82.25;100779.41;5073814;28;46244;-78
2021/12/11 05:22:42;;;;;;;;;1.50;1.00;;;;;6.03;82.06;100782.06;5075882;28;45602;-79
2021/12/11 05:25:10;;;;;;;;;1.00;0.25;;;;;6.02;81.78;100772.56;5077816;28;45532;-78
2021/12/11 05:31:02;;;;;;;;;1.25;0.00;;;;;6.08;81.79;100796.53;5076775;28;46051;-79
2021/12/11 05:33:27;;;;;;;;;1.00;1.00;;;;;5.99;81.42;100783.97;5055806;28;46153;-77
2021/12/11 05:35:54;;;;;;;;;0.75;0.75;;;;;6.07;81.11;100812.19;5055695;28;45710;-79
2021/12/11 05:38:22;;;;;;;;;0.75;0.75;;;;;6.01;81.48;100823.72;5054106;28;45587;-79
2021/12/11 05:40:52;;;;;;;;;1.00;0.50;;;;;6.00;81.35;100824.66;5053037;28;46448;-78
2021/12/11 05:46:40;;;;;;;;;1.25;1.00;;;;;6.03;82.00;100836.66;5052785;28;45908;-79
2021/12/11 05:49:08;;;;;;;;;2.00;1.00;;;;;6.01;81.29;100844.53;5053126;28;45655;-79
2021/12/11 05:51:38;;;;;;;;;2.00;1.25;;;;;5.98;81.71;100836.91;5054089;28;46851;-78
2021/12/11 05:54:07;;;;;;;;;3.50;1.50;;;;;5.94;82.31;100852.72;5054841;28;46352;-79
2021/12/11 05:56:36;;;;;;;;;4.25;2.00;;;;;5.83;82.07;100840.22;5055465;28;45621;-79
2021/12/11 06:02:27;;;;;;;;;4.00;1.00;;;;;5.90;81.97;100873.66;5055317;28;45697;-79
2021/12/11 06:04:56;;;;;;;;;4.00;2.00;;;;;5.88;81.69;100887.66;5055421;28;46030;-79
2021/12/11 06:07:26;;;;;;;;;1.00;1.00;;;;;5.87;81.89;100883.38;5055373;28;45571;-79
2021/12/11 06:10:05;;;;;;;;;2.50;1.00;;;;;5.86;82.01;100895.50;5055214;28;45508;-78
2021/12/11 06:12:31;;;;;;;;;0.00;0.00;;;;;5.82;81.52;100901.75;5055259;28;47250;-79
2021/12/11 06:18:19;;;;;;;;;1.50;1.00;;;;;5.58;81.39;100865.66;5054680;28;45880;-79
2021/12/11 06:20:47;;;;;;;;;5.00;4.00;;;;;5.71;81.75;100896.22;5055000;28;45692;-80
2021/12/11 06:23:13;;;;;;;;;2.50;2.00;;;;;5.62;81.86;100886.22;5087814;27;45670;-79
2021/12/11 06:25:39;;;;;;;;;2.00;1.50;;;;;5.66;81.56;100913.78;5054677;28;45776;-78
2021/12/11 06:28:06;;;;;;;;;4.75;3.50;;;;;5.55;81.41;100895.22;5054149;28;45964;-80
2021/12/11 06:30:34;;;;;;;;;2.00;2.00;;;;;5.49;81.69;100885.13;5054546;28;45771;-80
2021/12/11 06:33:00;;;;;;;;;4.00;4.00;;;;;5.55;81.31;100903.03;5071549;28;46608;-79
2021/12/11 06:35:38;;;;;;;;;1.00;1.00;;;;;5.51;81.70;100908.44;5075393;28;46155;-79
2021/12/11 06:38:07;;;;;;;;;4.00;4.00;;;;;5.41;81.71;100900.19;5075479;28;45679;-78
2021/12/11 06:40:33;;;;;;;;;2.50;2.00;;;;;5.46;81.65;100919.00;5077866;28;45649;-80
2021/12/11 06:42:58;;;;;;;;;2.00;2.00;;;;;5.44;81.85;100916.50;5078044;28;45632;-80
2021/12/11 06:45:25;;;;;;;;;4.75;3.00;;;;;5.42;81.59;100928.72;5075880;28;46341;-78
2021/12/11 06:47:51;;;;;;;;;6.50;4.00;;;;;5.38;82.06;100927.16;5074897;28;45895;-80
2021/12/11 06:50:18;;;;;;;;;0.00;0.00;;;;;5.35;81.69;100929.03;5075940;28;45593;-79
2021/12/11 06:52:46;;;;;;;;;5.50;4.00;;;;;5.35;82.00;100942.88;5077782;28;45830;-78
2021/12/11 06:55:15;;;;;;;;;5.00;4.00;;;;;5.38;82.07;100957.50;5077939;28;46137;-78
2021/12/11 06:57:40;;;;;;;;;3.00;3.00;;;;;5.31;81.75;100954.31;5076491;28;45777;-80
2021/12/11 07:03:27;;;;;;;;;4.25;1.00;;;;;5.37;81.74;100968.78;5074255;28;45509;-79
2021/12/11 07:05:53;;;;;;;;;1.00;1.00;;;;;5.36;81.87;100965.34;5074467;28;45872;-80
2021/12/11 07:08:19;;;;;;;;;2.00;2.00;;;;;5.32;82.13;100963.81;5074341;28;45526;-80
2021/12/11 07:10:45;;;;;;;;;2.25;1.50;;;;;5.35;81.90;100975.78;5074488;28;45497;-80
2021/12/11 07:13:14;;;;;;;;;3.00;1.50;;;;;5.22;81.78;100956.47;5073798;28;46332;-80
2021/12/11 07:15:40;;;;;;;;;2.00;2.00;;;;;5.34;81.90;100979.34;5089832;27;47137;-80
2021/12/11 07:18:06;;;;;;;;;4.50;2.00;;;;;5.27;81.59;100985.69;5074285;28;45836;-80
2021/12/11 07:20:32;;;;;;;;;3.50;2.00;;;;;5.31;81.85;101005.41;5106915;27;45878;-80
2021/12/11 07:22:58;;;;;;;;;5.00;3.50;;;;;5.19;82.13;100988.59;5076176;28;47798;-81
2021/12/11 07:25:52;;;;;;;;;4.75;2.50;;;;;5.29;81.80;101010.66;5077479;28;47029;-81
2021/12/11 07:28:20;;;;;;;;;2.25;1.50;;;;;5.28;81.98;100997.78;5075821;28;45604;-78
2021/12/11 07:30:49;;;;;;;;;1.00;1.00;;;;;5.29;81.71;101002.88;5075883;28;45817;-80
2021/12/11 07:33:16;;;;;;;;;2.50;1.50;;;;;5.36;81.78;101019.06;5075614;28;47460;-80
2021/12/11 07:35:44;;;;;;;;;1.00;0.00;;;;;5.37;81.88;101015.56;5058829;28;46444;-79
2021/12/11 07:38:10;;;;;;;;;4.00;3.00;;;;;5.38;81.80;101015.50;5058351;28;45898;-80
2021/12/11 07:40:40;;;;;;;;;2.00;1.00;;;;;5.39;82.09;101022.38;5075850;28;46030;-80
2021/12/11 07:43:06;;;;;;;;;6.00;4.00;;;;;5.36;82.20;101022.50;5075635;28;46441;-80
2021/12/11 07:48:53;;;;;;;;;1.50;1.50;;;;;5.15;81.85;101007.84;5074935;28;45951;-80
2021/12/11 07:51:21;;;;;;;;;2.00;1.00;;;;;5.38;82.23;101053.63;5074769;28;45734;-80
2021/12/11 07:53:48;;;;;;;;;4.00;2.00;;;;;5.32;82.03;101043.47;5075032;28;46462;-79
2021/12/11 07:56:13;;;;;;;;;4.75;3.50;;;;;5.39;82.24;101057.91;5074531;28;46397;-79
2021/12/11 07:58:39;;;;;;;;;4.00;2.00;;;;;5.39;81.88;101050.97;5074441;28;45797;-79
2021/12/11 08:01:08;;;;;;;;;3.75;2.00;;;;;5.39;81.68;101052.72;5074420;28;45863;-80
2021/12/11 08:03:35;;;;;;;;;3.50;2.00;;;;;5.37;81.83;101044.97;5074556;28;47278;-80
2021/12/11 08:06:00;;;;;;;;;5.50;3.50;;;;;5.41;81.88;101062.13;5076666;28;46593;-80
2021/12/11 08:08:26;;;;;;;;;4.75;3.50;;;;;5.47;81.97;101067.06;5077138;28;45595;-78
2021/12/11 08:10:56;;;;;;;;;5.00;2.00;;;;;5.49;81.49;101074.78;5077169;28;45494;-79
2021/12/11 08:13:24;;;;;;;;;2.00;2.00;;;;;5.51;81.36;101083.34;5076964;28;46501;-77
2021/12/11 08:19:15;;;;;;;;;4.00;1.75;;;;;5.50;81.69;101092.06;5079230;28;45629;-78
2021/12/11 08:21:41;;;;;;;;;4.00;2.00;;;;;5.53;81.88;101104.06;5079455;27;45556;-79
2021/12/11 08:24:07;;;;;;;;;2.00;2.00;;;;;5.56;82.04;101101.38;5079042;28;45548;-79
2021/12/11 08:26:35;;;;;;;;;2.75;1.00;;;;;5.53;81.85;101099.72;5075678;27;46069;-78
2021/12/11 08:29:00;;;;;;;;;4.25;4.00;;;;;5.55;81.76;101097.06;5075235;28;45852;-77
2021/12/11 08:31:26;;;;;;;;;3.00;1.50;;;;;5.59;81.80;101104.66;5075679;28;45800;-75
2021/12/11 08:33:53;;;;;;;;;4.00;3.00;;;;;5.57;82.02;101101.28;5074750;28;46400;-78
2021/12/11 08:36:20;;;;;;;;;2.00;2.00;;;;;5.65;81.60;101114.81;5075271;28;45909;-76
2021/12/11 08:38:47;;;;;;;;;2.00;2.00;;;;;5.71;81.65;101113.69;5074707;28;45495;-77
2021/12/11 08:41:19;;;;;;;;;4.50;4.00;;;;;5.76;81.63;101111.75;5075250;28;45570;-76
2021/12/11 08:43:52;;;;;;;;;2.50;2.00;;;;;5.81;81.43;101110.66;5074904;28;47617;-76
2021/12/11 08:46:27;;;;;;;;;4.00;1.00;;;;;5.88;81.39;101099.06;5075249;28;45970;-76
2021/12/11 08:48:53;;;;;;;;;1.75;1.75;;;;;5.90;81.19;101107.66;5075234;28;45855;-76
2021/12/11 08:51:24;;;;;;;;;4.00;2.00;;;;;5.92;81.27;101110.22;5074892;28;45823;-78
2021/12/11 08:53:50;;;;;;;;;5.00;3.00;;;;;6.01;81.24;101116.75;5075414;28;46621;-75
2021/12/11 08:56:17;;;;;;;;;4.75;3.00;;;;;6.06;81.21;101126.03;5075130;28;45899;-76
2021/12/11 08:58:45;;;;;;;;;2.00;2.00;;;;;6.09;81.72;101136.31;5074805;28;45880;-76
2021/12/11 09:04:39;;;;;;;;;4.00;2.00;;;;;6.15;81.12;101127.41;5073050;28;46091;-76
2021/12/11 09:07:15;;;;;;;;;3.50;3.50;;;;;6.19;81.06;101128.94;5074417;28;47322;-77
2021/12/11 09:09:46;;;;;;;;;4.00;4.00;;;;;6.26;81.18;101141.59;5074999;27;45685;-76
2021/12/11 09:12:21;;;;;;;;;5.00;4.00;;;;;6.31;81.21;101146.63;5075071;27;45633;-75
2021/12/11 09:14:51;;;;;;;;;4.25;3.00;;;;;6.36;80.66;101143.81;5074721;28;45669;-75
2021/12/11 09:17:39;;;;;;;;;2.50;2.00;;;;;6.43;80.66;101153.84;5074847;28;45757;-79
2021/12/11 09:20:12;;;;;;;;;5.50;5.00;;;;;6.47;80.84;101152.81;5075064;28;45822;-75
2021/12/11 09:22:46;;;;;;;;;6.50;5.00;;;;;6.52;81.01;101161.25;5073667;28;45961;-78
2021/12/11 09:25:11;;;;;;;;;6.00;4.25;;;;;6.59;81.26;101175.66;5074792;28;45687;-75
2021/12/11 09:27:36;;;;;;;;;4.00;2.00;;;;;6.63;80.81;101173.78;5074427;28;46378;-77
2021/12/11 09:30:25;;;;;;;;;6.00;5.00;;;;;6.66;80.72;101189.25;5074752;28;45644;-78
2021/12/11 09:32:55;;;;;;;;;5.25;4.00;;;;;6.66;80.74;101178.84;5072600;28;45681;-79
2021/12/11 09:35:30;;;;;;;;;4.25;4.00;;;;;6.73;80.59;101195.88;5073069;28;47059;-76
2021/12/11 09:38:05;;;;;;;;;4.50;1.00;;;;;6.71;80.60;101197.69;5072566;28;47199;-80
2021/12/11 09:40:39;;;;;;;;;6.00;4.25;;;;;6.74;80.70;101205.38;5072071;28;45822;-77
2021/12/11 09:43:04;;;;;;;;;4.75;4.00;;;;;6.77;80.32;101207.84;5072822;28;45729;-76
2021/12/11 09:45:44;;;;;;;;;5.00;3.33;;;;;6.81;80.48;101214.59;5072772;28;47657;-75
2021/12/11 09:48:17;;;;;;;;;6.50;4.75;;;;;6.85;80.71;101207.50;5075494;28;46010;-79
2021/12/11 09:50:52;;;;;;;;;6.75;4.75;;;;;6.88;80.52;101205.59;5076662;28;45752;-78
2021/12/11 09:53:20;;;;;;;;;4.50;4.00;;;;;6.92;80.39;101203.69;5074553;28;45684;-76
2021/12/11 09:55:46;;;;;;;;;6.00;5.00;;;;;6.98;80.41;101208.59;5072222;28;46687;-81
2021/12/11 09:58:17;;;;;;;;;2.50;2.50;;;;;7.02;80.27;101211.00;5071478;28;47081;-78
2021/12/11 10:00:55;;;;;;;;;8.00;6.00;;;;;7.09;80.21;101229.78;5071977;28;45759;-80
2021/12/11 10:03:26;;;;;;;;;4.75;4.50;;;;;7.11;80.06;101227.97;5072388;28;45679;-81
2021/12/11 10:06:10;;;;;;;;;7.25;6.00;;;;;7.18;80.03;101237.16;5072532;28;47346;-77
2021/12/11 10:08:37;;;;;;;;;5.75;4.75;;;;;7.20;79.77;101239.72;5072619;28;46204;-79
2021/12/11 10:11:12;;;;;;;;;6.00;3.00;;;;;7.23;79.94;101244.78;5075261;28;45792;-81
2021/12/11 10:13:49;;;;;;;;;5.50;3.25;;;;;7.23;79.91;101243.03;5074519;28;45933;-83
2021/12/11 10:16:17;;;;;;;;;6.00;5.00;;;;;7.24;79.95;101238.63;5073970;28;47723;-78
2021/12/11 10:18:43;;;;;;;;;6.75;5.00;;;;;7.28;80.20;101242.81;5073991;28;45572;-76
2021/12/11 10:21:14;;;;;;;;;4.50;3.00;;;;;7.31;80.00;101248.72;5074114;27;45932;-75
2021/12/11 10:23:43;;;;;;;;;6.75;5.00;;;;;7.34;79.70;101239.94;5074776;28;45610;-79
2021/12/11 10:26:13;;;;;;;;;6.00;3.75;;;;;7.39;79.76;101233.56;5074095;28;46853;-78
2021/12/11 10:28:42;;;;;;;;;4.25;4.00;;;;;7.40;79.55;101226.56;5073870;27;46198;-75
2021/12/11 10:31:18;;;;;;;;;7.00;5.00;;;;;7.42;79.53;101224.75;5072832;28;45595;-78
2021/12/11 10:33:44;;;;;;;;;6.00;5.00;;;;;7.53;80.07;101232.91;5074748;28;45615;-80
2021/12/11 10:36:13;;;;;;;;;5.00;3.50;;;;;7.53;79.74;101236.34;5073456;28;46670;-80
2021/12/11 10:38:40;;;;;;;;;6.25;5.00;;;;;7.56;79.38;101236.19;5073726;27;45648;-78
2021/12/11 10:41:07;;;;;;;;;5.50;4.00;;;;;7.54;79.46;101238.03;5073764;28;45621;-78
2021/12/11 10:43:42;;;;;;;;;9.25;3.25;;;;;7.59;79.50;101243.88;5074289;28;45564;-78
2021/12/11 10:46:11;;;;;;;;;5.25;5.00;;;;;7.61;79.37;101242.97;5073357;28;47648;-79
2021/12/11 10:48:37;;;;;;;;;7.25;5.00;;;;;7.64;79.45;101245.41;5073386;28;47490;-77
2021/12/11 10:51:08;;;;;;;;;4.50;2.25;;;;;7.61;79.27;101242.97;5073649;28;45625;-76
2021/12/11 10:53:36;;;;;;;;;6.50;3.00;;;;;7.66;79.02;101246.19;5072765;28;45916;-78
2021/12/11 10:56:04;;;;;;;;;5.00;3.00;;;;;7.55;79.17;101231.06;5072568;28;47604;-80
2021/12/11 10:58:35;;;;;;;;;9.25;3.00;;;;;7.69;79.19;101259.06;5076939;28;46399;-78
2021/12/11 11:01:06;;;;;;;;;4.00;3.00;;;;;7.73;79.25;101261.44;5076869;28;45799;-79
2021/12/11 11:03:36;;;;;;;;;2.25;2.00;;;;;7.75;79.12;101254.41;5077602;28;45734;-75
2021/12/11 11:06:02;;;;;;;;;5.00;3.00;;;;;7.72;79.02;101249.31;5076986;28;45718;-77
2021/12/11 11:08:29;;;;;;;;;3.00;2.00;;;;;7.80;78.88;101262.00;5076607;27;46535;-78
2021/12/11 11:11:01;;;;;;;;;4.50;3.00;;;;;7.78;78.91;101246.41;5076734;28;45720;-79
2021/12/11 11:13:27;;;;;;;;;2.50;2.25;;;;;7.84;78.96;101261.78;5078365;28;45817;-80
2021/12/11 11:15:54;;;;;;;;;5.50;3.00;;;;;7.89;79.06;101258.94;5079811;27;45665;-78
2021/12/11 11:18:22;;;;;;;;;6.00;5.00;;;;;7.94;78.58;101259.53;5080390;28;46141;-79
2021/12/11 11:21:03;;;;;;;;;6.50;5.25;;;;;8.00;78.61;101256.63;5079110;28;45703;-76
2021/12/11 11:23:28;;;;;;;;;7.00;5.50;;;;;8.04;78.53;101250.38;5078513;28;45723;-78
2021/12/11 11:25:57;;;;;;;;;9.50;5.50;;;;;8.12;78.69;101256.03;5076925;28;46451;-77
2021/12/11 11:28:26;;;;;;;;;5.25;3.00;;;;;8.16;78.80;101252.34;5076732;28;46216;-78
2021/12/11 11:30:59;;;;;;;;;5.00;5.00;;;;;8.17;78.81;101253.19;5076781;28;45766;-78
2021/12/11 11:33:27;;;;;;;;;2.00;2.00;;;;;8.20;78.53;101250.44;5076436;28;45796;-76
2021/12/11 11:35:53;;;;;;;;;5.50;3.00;;;;;8.24;78.63;101252.78;5076161;28;46678;-79
2021/12/11 11:38:29;;;;;;;;;5.75;3.00;;;;;8.25;78.61;101262.31;5075165;28;46611;-80
2021/12/11 11:40:59;;;;;;;;;5.00;3.00;;;;;8.29;78.52;101269.06;5081255;27;45757;-77
2021/12/11 11:43:26;;;;;;;;;1.25;1.25;;;;;8.27;78.33;101251.78;5076402;27;45959;-78
2021/12/11 11:45:53;;;;;;;;;5.00;3.00;;;;;8.35;78.39;101247.91;5076531;28;46233;-80
2021/12/11 11:48:30;;;;;;;;;4.00;3.00;;;;;8.38;78.26;101265.16;5075984;28;47098;-79
2021/12/11 11:50:58;;;;;;;;;5.50;3.00;;;;;8.38;78.14;101271.22;5076353;28;45598;-76
2021/12/11 11:53:27;;;;;;;;;5.25;3.50;;;;;8.39;78.26;101272.94;5076580;28;45594;-79
2021/12/11 11:55:57;;;;;;;;;5.00;3.00;;;;;8.41;78.02;101270.25;5074457;28;45873;-77
2021/12/11 11:58:27;;;;;;;;;4.25;4.25;;;;;8.43;78.02;101273.59;5073943;28;46008;-78
2021/12/11 12:01:00;;;;;;;;;4.00;4.00;;;;;8.46;78.34;101270.00;5075052;28;45608;-74
2021/12/11 12:03:29;;;;;;;;;5.00;3.00;;;;;8.47;78.04;101271.69;5075483;28;45925;-79
2021/12/11 12:06:00;;;;;;;;;5.75;3.00;;;;;8.49;78.08;101275.91;5076871;28;45649;-75
2021/12/11 12:08:26;;;;;;;;;9.00;5.00;;;;;8.53;77.89;101279.22;5079684;28;47162;-79
2021/12/11 12:10:53;;;;;;;;;6.00;5.00;;;;;8.53;77.76;101269.59;5081709;28;45694;-78
2021/12/11 12:13:24;;;;;;;;;5.00;3.50;;;;;8.59;78.18;101273.66;5083527;28;45929;-75
2021/12/11 12:15:58;;;;;;;;;5.00;4.50;;;;;8.60;77.80;101276.19;5083723;28;47521;-76
2021/12/11 12:18:27;;;;;;;;;4.50;3.00;;;;;8.63;77.88;101267.38;5081341;28;46684;-77
2021/12/11 12:20:54;;;;;;;;;3.00;2.50;;;;;8.63;77.62;101264.75;5079896;28;45833;-77
2021/12/11 12:23:20;;;;;;;;;5.50;3.00;;;;;8.72;77.69;101275.56;5075833;28;45818;-75
2021/12/11 12:25:48;;;;;;;;;4.50;2.25;;;;;8.76;77.75;101276.22;5075118;28;46608;-77
2021/12/11 12:28:13;;;;;;;;;2.75;2.75;;;;;8.81;77.73;101282.91;5075342;28;46300;-75
2021/12/11 12:30:46;;;;;;;;;4.00;2.50;;;;;8.83;77.83;101288.06;5074683;28;45603;-78
2021/12/11 12:33:14;;;;;;;;;5.00;3.00;;;;;8.82;77.71;101284.59;5075097;28;45710;-80
2021/12/11 12:35:40;;;;;;;;;6.00;3.50;;;;;8.90;77.59;101296.41;5074889;28;46650;-75
2021/12/11 12:38:09;;;;;;;;;3.50;3.00;;;;;8.89;77.43;101302.56;5075757;28;46319;-76
2021/12/11 12:40:40;;;;;;;;;9.50;5.50;;;;;8.92;77.65;101292.78;5075017;27;45663;-76
2021/12/11 12:46:08;;;;;;;;;6.75;4.75;;;;;8.99;77.44;101302.00;5075153;28;45790;-80
2021/12/11 12:48:33;;;;;;;;;6.25;5.00;;;;;8.99;77.20;101299.38;5075411;28;46318;-78
2021/12/11 12:51:03;;;;;;;;;7.25;3.00;;;;;9.02;77.30;101301.81;5076084;28;45934;-79